createdAt,value
2022-09-28T00:00:58.371Z,4.82
2022-09-28T00:03:27.999Z,6.55
2022-09-28T00:06:02.568Z,6.78
2022-09-28T00:08:31.864Z,7.60
2022-09-28T00:10:59.867Z,3.95
2022-09-28T00:13:28.152Z,7.20
2022-09-28T00:16:04.084Z,6.63
2022-09-28T00:18:32.408Z,5.20
2022-09-28T00:21:05.663Z,5.97
2022-09-28T00:23:35.593Z,7.20
2022-09-28T00:26:04.397Z,5.10
2022-09-28T00:28:32.468Z,4.18
2022-09-28T00:31:00.862Z,4.47
2022-09-28T00:33:29.280Z,3.33
2022-09-28T00:35:58.093Z,5.72
2022-09-28T00:38:28.929Z,6.03
2022-09-28T00:40:59.485Z,8.32
2022-09-28T00:43:27.999Z,8.25
2022-09-28T00:46:00.187Z,7.32
2022-09-28T00:48:33.331Z,7.68
2022-09-28T00:51:05.553Z,5.90
2022-09-28T00:53:36.419Z,5.75
2022-09-28T00:56:09.134Z,7.60
2022-09-28T00:58:40.520Z,3.30
2022-09-28T01:01:08.720Z,6.25
2022-09-28T01:03:38.643Z,2.95
2022-09-28T01:06:09.272Z,3.28
2022-09-28T01:08:38.219Z,2.22
2022-09-28T01:11:07.422Z,7.25
2022-09-28T01:13:35.353Z,1.90
2022-09-28T01:16:14.025Z,4.10
2022-09-28T01:18:53.896Z,3.42
2022-09-28T01:21:23.257Z,3.05
2022-09-28T01:24:15.298Z,2.83
2022-09-28T01:26:50.736Z,2.90
2022-09-28T01:29:27.663Z,2.65
2022-09-28T01:32:06.417Z,1.40
2022-09-28T01:34:42.261Z,3.17
2022-09-28T01:37:15.007Z,3.17
2022-09-28T01:39:46.828Z,1.10
2022-09-28T01:42:19.774Z,2.75
2022-09-28T01:44:51.458Z,3.53
2022-09-28T01:47:23.156Z,3.20
2022-09-28T01:49:56.173Z,3.92
2022-09-28T01:52:29.534Z,2.05
2022-09-28T01:55:03.648Z,3.08
2022-09-28T01:57:40.519Z,3.58
2022-09-28T02:00:11.753Z,2.88
2022-09-28T02:02:46.666Z,2.70
2022-09-28T02:05:19.188Z,4.05
2022-09-28T02:07:53.781Z,2.95
2022-09-28T02:10:25.680Z,1.88
2022-09-28T02:13:00.105Z,2.22
2022-09-28T02:15:34.025Z,1.90
2022-09-28T02:18:02.048Z,1.05
2022-09-28T02:20:33.210Z,2.70
2022-09-28T02:23:03.755Z,3.83
2022-09-28T02:25:39.200Z,3.20
2022-09-28T02:28:11.350Z,4.65
2022-09-28T02:30:41.426Z,2.58
2022-09-28T02:33:13.912Z,1.10
2022-09-28T02:35:43.714Z,5.53
2022-09-28T02:38:12.871Z,3.30
2022-09-28T02:40:41.809Z,2.17
2022-09-28T02:43:19.402Z,1.85
2022-09-28T02:45:57.109Z,2.45
2022-09-28T02:48:47.210Z,3.53
2022-09-28T02:51:28.062Z,1.67
2022-09-28T02:54:17.976Z,3.17
2022-09-28T02:57:06.980Z,5.38
2022-09-28T02:59:48.549Z,6.32
2022-09-28T03:02:26.109Z,4.28
2022-09-28T03:05:07.146Z,5.15
2022-09-28T03:07:37.851Z,6.38
2022-09-28T03:10:14.754Z,5.00
2022-09-28T03:12:45.986Z,7.03
2022-09-28T03:15:22.918Z,6.03
2022-09-28T03:17:51.278Z,7.45
2022-09-28T03:20:19.449Z,7.38
2022-09-28T03:23:06.013Z,5.15
2022-09-28T03:25:34.989Z,5.18
2022-09-28T03:28:03.109Z,6.03
2022-09-28T03:30:35.804Z,6.10
2022-09-28T03:33:04.297Z,4.85
2022-09-28T03:35:33.529Z,8.65
2022-09-28T03:38:01.293Z,6.32
2022-09-28T03:40:31.310Z,5.45
2022-09-28T03:42:59.904Z,7.13
2022-09-28T03:45:27.808Z,7.63
2022-09-28T03:47:56.994Z,5.90
2022-09-28T03:50:24.814Z,6.25
2022-09-28T03:52:52.678Z,6.85
2022-09-28T03:55:20.423Z,8.30
2022-09-28T03:57:54.829Z,8.57
2022-09-28T04:00:22.934Z,9.10
2022-09-28T04:02:50.869Z,7.25
2022-09-28T04:05:19.939Z,6.97
2022-09-28T04:07:48.782Z,6.00
2022-09-28T04:10:16.579Z,5.90
2022-09-28T04:12:44.752Z,6.45
2022-09-28T04:15:12.479Z,7.35
2022-09-28T04:17:40.440Z,5.85
2022-09-28T04:20:15.597Z,7.10
2022-09-28T04:23:01.345Z,9.97
2022-09-28T04:25:29.920Z,7.78
2022-09-28T04:28:15.874Z,6.50
2022-09-28T04:30:43.667Z,7.13
2022-09-28T04:33:12.110Z,6.38
2022-09-28T04:35:39.817Z,7.97
2022-09-28T04:38:08.974Z,10.98
2022-09-28T04:40:37.088Z,7.45
2022-09-28T04:43:05.169Z,10.43
2022-09-28T04:45:33.270Z,6.40
2022-09-28T04:48:09.010Z,6.00
2022-09-28T04:51:01.555Z,6.30
2022-09-28T04:53:31.545Z,8.68
2022-09-28T04:56:01.764Z,11.20
2022-09-28T04:58:32.087Z,9.52
2022-09-28T05:01:01.918Z,15.07
2022-09-28T05:03:48.054Z,9.32
2022-09-28T05:06:40.015Z,10.05
2022-09-28T05:09:10.322Z,7.45
2022-09-28T05:11:38.096Z,9.82
2022-09-28T05:14:12.448Z,13.27
2022-09-28T05:16:40.991Z,9.68
2022-09-28T05:19:26.873Z,9.13
2022-09-28T05:22:03.942Z,9.23
2022-09-28T05:24:37.799Z,10.25
2022-09-28T05:27:05.875Z,9.63
2022-09-28T05:29:33.643Z,11.02
2022-09-28T05:32:33.237Z,11.20
2022-09-28T05:35:22.713Z,10.85
2022-09-28T05:37:50.522Z,9.07
2022-09-28T05:40:19.860Z,11.63
2022-09-28T05:42:48.798Z,9.15
2022-09-28T05:45:16.757Z,11.23
2022-09-28T05:47:47.065Z,9.20
2022-09-28T05:50:18.877Z,9.27
2022-09-28T05:52:47.499Z,7.63
2022-09-28T05:55:15.507Z,8.18
2022-09-28T05:57:44.569Z,9.45
2022-09-28T06:00:13.239Z,9.20
2022-09-28T06:02:42.358Z,7.93
2022-09-28T06:05:12.780Z,8.20
2022-09-28T06:07:40.497Z,8.13
2022-09-28T06:10:09.093Z,6.95
2022-09-28T06:12:48.591Z,6.40
2022-09-28T06:15:17.421Z,7.13
2022-09-28T06:17:46.621Z,10.43
2022-09-28T06:20:52.676Z,9.00
2022-09-28T06:23:30.967Z,7.90
2022-09-28T06:26:00.656Z,6.18
2022-09-28T06:28:29.726Z,6.18
2022-09-28T06:30:57.567Z,8.60
2022-09-28T06:33:26.730Z,7.32
2022-09-28T06:35:54.569Z,10.23
2022-09-28T06:38:22.500Z,4.78
2022-09-28T06:40:50.632Z,10.25
2022-09-28T06:43:18.892Z,7.82
2022-09-28T06:46:07.888Z,4.82
2022-09-28T06:48:38.569Z,8.13
2022-09-28T06:51:09.096Z,5.95
2022-09-28T06:53:47.585Z,5.07
2022-09-28T06:56:22.591Z,5.10
2022-09-28T06:58:50.571Z,6.82
2022-09-28T07:01:19.993Z,7.78
2022-09-28T07:04:05.214Z,9.30
2022-09-28T07:06:55.869Z,5.88
2022-09-28T07:09:46.444Z,7.78
2022-09-28T07:12:26.232Z,4.65
2022-09-28T07:14:57.583Z,5.70
2022-09-28T07:17:29.551Z,6.88
2022-09-28T07:20:10.386Z,5.75
2022-09-28T07:22:43.894Z,6.20
2022-09-28T07:28:09.399Z,6.05
2022-09-28T07:30:58.102Z,5.60
2022-09-28T07:33:53.777Z,4.93
2022-09-28T07:36:29.844Z,4.65
2022-09-28T07:38:58.691Z,5.45
2022-09-28T07:41:32.477Z,7.00
2022-09-28T07:44:05.339Z,5.90
2022-09-28T07:46:36.819Z,6.93
2022-09-28T07:49:40.441Z,6.00
2022-09-28T07:52:37.366Z,7.47
2022-09-28T07:55:15.787Z,7.18
2022-09-28T07:58:12.899Z,4.70
2022-09-28T08:01:08.847Z,7.32
2022-09-28T08:03:40.186Z,10.18
2022-09-28T08:06:12.554Z,4.75
2022-09-28T08:08:44.530Z,4.30
2022-09-28T08:11:15.005Z,5.45
2022-09-28T08:14:02.207Z,7.65
2022-09-28T08:17:08.816Z,4.20
2022-09-28T08:20:00.634Z,10.15
2022-09-28T08:22:32.176Z,5.32
2022-09-28T08:25:00.888Z,5.53
2022-09-28T08:27:29.966Z,3.88
2022-09-28T08:29:57.822Z,6.40
2022-09-28T08:32:49.177Z,4.13
2022-09-28T08:35:40.922Z,2.85
2022-09-28T08:38:15.717Z,5.20
2022-09-28T08:41:10.610Z,4.45
2022-09-28T08:44:02.937Z,4.60
2022-09-28T08:46:58.234Z,5.90
2022-09-28T08:49:52.519Z,5.15
2022-09-28T08:52:52.351Z,1.67
2022-09-28T08:55:47.985Z,3.50
2022-09-28T08:58:21.303Z,2.35
2022-09-28T09:00:51.319Z,2.97
2022-09-28T09:03:24.444Z,2.70
2022-09-28T09:06:21.109Z,4.13
2022-09-28T09:09:04.121Z,2.72
2022-09-28T09:11:51.626Z,4.40
2022-09-28T09:14:39.991Z,4.13
2022-09-28T09:17:19.056Z,2.83
2022-09-28T09:20:17.043Z,4.57
2022-09-28T09:22:59.666Z,3.80
2022-09-28T09:25:38.422Z,3.67
2022-09-28T09:28:35.246Z,4.03
2022-09-28T09:31:14.364Z,6.72
2022-09-28T09:34:13.588Z,3.97
2022-09-28T09:37:06.308Z,3.13
2022-09-28T09:40:09.197Z,3.92
2022-09-28T09:43:29.487Z,4.82
2022-09-28T09:46:33.371Z,6.00
2022-09-28T09:49:20.653Z,2.67
2022-09-28T09:51:53.565Z,3.08
2022-09-28T09:54:27.740Z,3.33
2022-09-28T09:57:03.585Z,3.33
2022-09-28T09:59:49.397Z,2.55
2022-09-28T10:02:43.279Z,2.20
2022-09-28T10:05:36.958Z,3.80
2022-09-28T10:08:13.802Z,4.63
2022-09-28T10:10:50.093Z,3.75
2022-09-28T10:13:20.091Z,7.03
2022-09-28T10:15:50.408Z,4.05
2022-09-28T10:18:42.671Z,2.20
2022-09-28T10:21:51.756Z,3.28
2022-09-28T10:24:31.272Z,7.53
2022-09-28T10:27:05.317Z,3.10
2022-09-28T10:29:43.241Z,3.20
2022-09-28T10:32:21.288Z,3.60
2022-09-28T10:34:51.943Z,5.45
2022-09-28T10:37:24.259Z,5.85
2022-09-28T10:40:30.238Z,1.88
2022-09-28T10:43:02.347Z,2.80
2022-09-28T10:45:37.125Z,2.85
2022-09-28T10:48:14.319Z,5.95
2022-09-28T10:50:43.837Z,12.55
2022-09-28T10:53:20.426Z,1.77
2022-09-28T10:56:21.662Z,3.10
2022-09-28T10:58:54.605Z,1.75
2022-09-28T11:01:35.604Z,3.33
2022-09-28T11:04:07.999Z,2.17
2022-09-28T11:06:40.157Z,4.13
2022-09-28T11:09:30.989Z,2.63
2022-09-28T11:12:06.072Z,2.17
2022-09-28T11:14:41.276Z,2.60
2022-09-28T11:17:16.474Z,1.70
2022-09-28T11:19:46.715Z,1.88
2022-09-28T11:22:36.814Z,1.40
2022-09-28T11:25:22.259Z,3.90
2022-09-28T11:27:58.895Z,3.80
2022-09-28T11:30:31.021Z,1.85
2022-09-28T11:33:24.206Z,4.32
2022-09-28T11:36:32.035Z,2.60
2022-09-28T11:39:11.145Z,3.22
2022-09-28T11:42:01.089Z,2.97
2022-09-28T11:44:46.291Z,2.22
2022-09-28T11:47:44.440Z,3.90
2022-09-28T11:50:24.612Z,1.50
2022-09-28T11:53:05.438Z,2.35
2022-09-28T11:55:39.651Z,2.38
2022-09-28T11:58:13.840Z,5.22
2022-09-28T12:00:48.968Z,5.05
2022-09-28T12:03:21.937Z,1.75
2022-09-28T12:05:53.563Z,3.55
2022-09-28T12:08:27.330Z,3.80
2022-09-28T12:11:09.671Z,1.52
2022-09-28T12:14:21.410Z,2.00
2022-09-28T12:17:10.984Z,2.97
2022-09-28T12:19:43.488Z,4.45
2022-09-28T12:22:17.075Z,4.22
2022-09-28T12:24:48.746Z,1.25
2022-09-28T12:27:25.353Z,2.13
2022-09-28T12:29:58.128Z,1.52
2022-09-28T12:32:32.337Z,1.85
2022-09-28T12:35:00.150Z,1.58
2022-09-28T12:37:42.723Z,2.85
2022-09-28T12:40:32.578Z,1.98
2022-09-28T12:43:11.856Z,3.28
2022-09-28T12:46:11.119Z,3.90
2022-09-28T12:50:20.179Z,1.42
2022-09-28T12:52:00.059Z,3.97
2022-09-28T12:54:53.194Z,3.42
2022-09-28T12:57:43.535Z,1.92
2022-09-28T13:00:16.352Z,3.08
2022-09-28T13:03:16.851Z,3.25
2022-09-28T13:06:15.196Z,5.75
2022-09-28T13:08:53.256Z,4.85
2022-09-28T13:11:31.889Z,1.63
2022-09-28T13:14:21.508Z,2.85
2022-09-28T13:17:00.865Z,3.28
2022-09-28T13:19:38.878Z,4.10
2022-09-28T13:22:23.781Z,2.97
2022-09-28T13:24:55.719Z,1.73
2022-09-28T13:27:32.814Z,4.10
2022-09-28T13:30:03.586Z,4.32
2022-09-28T13:32:34.395Z,3.47
2022-09-28T13:35:03.053Z,3.20
2022-09-28T13:37:30.824Z,4.45
2022-09-28T13:39:59.632Z,3.75
2022-09-28T13:43:06.726Z,2.22
2022-09-28T13:45:53.682Z,2.10
2022-09-28T13:48:26.364Z,4.15
2022-09-28T13:51:19.901Z,3.78
2022-09-28T13:54:13.592Z,2.88
2022-09-28T13:56:50.713Z,3.17
2022-09-28T13:59:24.747Z,1.92
2022-09-28T14:01:57.348Z,2.55
2022-09-28T14:04:48.080Z,3.70
2022-09-28T14:07:21.349Z,2.80
2022-09-28T14:10:08.776Z,3.40
2022-09-28T14:12:54.987Z,3.47
2022-09-28T14:15:45.911Z,3.40
2022-09-28T14:18:23.408Z,3.70
2022-09-28T14:21:03.989Z,6.65
2022-09-28T14:24:19.254Z,3.58
2022-09-28T14:27:08.528Z,2.70
2022-09-28T14:29:38.149Z,2.65
2022-09-28T14:32:22.380Z,2.95
2022-09-28T14:34:57.747Z,3.40
2022-09-28T14:37:48.563Z,7.10
2022-09-28T14:40:39.999Z,4.10
2022-09-28T14:43:24.677Z,2.00
2022-09-28T14:46:10.825Z,1.67
2022-09-28T14:48:48.937Z,3.35
2022-09-28T14:51:45.724Z,5.72
2022-09-28T14:54:20.375Z,3.53
2022-09-28T14:56:58.915Z,3.10
2022-09-28T14:59:29.479Z,4.45
2022-09-28T15:02:01.341Z,2.90
2022-09-28T15:04:31.753Z,3.47
2022-09-28T15:06:59.997Z,3.97
2022-09-28T15:09:29.688Z,3.00
2022-09-28T15:12:01.343Z,3.95
2022-09-28T15:14:31.897Z,3.58
2022-09-28T15:17:03.438Z,3.20
2022-09-28T15:19:39.520Z,3.47
2022-09-28T15:22:15.806Z,7.47
2022-09-28T15:24:59.944Z,3.80
2022-09-28T15:27:35.858Z,5.10
2022-09-28T15:30:20.087Z,6.47
2022-09-28T15:32:47.779Z,4.80
2022-09-28T15:35:20.559Z,2.80
2022-09-28T15:37:52.015Z,3.78
2022-09-28T15:40:29.896Z,3.00
2022-09-28T15:42:59.433Z,4.05
2022-09-28T15:45:31.949Z,2.88
2022-09-28T15:48:20.851Z,4.78
2022-09-28T15:50:59.925Z,4.03
2022-09-28T15:53:28.303Z,3.25
2022-09-28T15:56:01.895Z,5.75
2022-09-28T15:58:30.271Z,3.50
2022-09-28T16:01:21.459Z,8.77
2022-09-28T16:03:49.498Z,4.88
2022-09-28T16:06:17.532Z,2.20
2022-09-28T16:08:48.469Z,3.38
2022-09-28T16:11:21.700Z,2.55
2022-09-28T16:14:01.619Z,3.72
2022-09-28T16:16:32.054Z,0.43
2022-09-28T16:19:02.036Z,6.35
2022-09-28T16:21:43.775Z,1.73
2022-09-28T16:24:21.269Z,0.88
2022-09-28T16:26:57.937Z,2.08
2022-09-28T16:29:28.703Z,0.95
2022-09-28T16:31:56.589Z,3.58
2022-09-28T16:34:27.133Z,2.28
2022-09-28T16:36:55.408Z,4.97
2022-09-28T16:39:23.097Z,2.67
2022-09-28T16:41:56.708Z,2.17
2022-09-28T16:44:27.282Z,4.20
2022-09-28T16:46:58.423Z,4.70
2022-09-28T16:49:26.714Z,2.45
2022-09-28T16:51:54.833Z,2.67
2022-09-28T16:54:41.501Z,1.73
2022-09-28T16:57:12.765Z,2.03
2022-09-28T16:59:40.650Z,2.85
2022-09-28T17:02:45.060Z,3.20
2022-09-28T17:05:08.557Z,2.85
2022-09-28T17:07:36.459Z,3.10
2022-09-28T17:10:04.568Z,3.58
2022-09-28T17:12:33.627Z,3.70
2022-09-28T17:15:01.352Z,2.10
2022-09-28T17:17:31.407Z,2.38
2022-09-28T17:19:59.301Z,1.90
2022-09-28T17:22:27.065Z,4.22
2022-09-28T17:24:54.770Z,4.28
2022-09-28T17:27:22.703Z,5.30
2022-09-28T17:29:54.415Z,6.85
2022-09-28T17:32:22.113Z,4.35
2022-09-28T17:35:00.856Z,1.95
2022-09-28T17:37:36.108Z,6.32
2022-09-28T17:40:08.444Z,3.58
2022-09-28T17:42:36.575Z,4.15
2022-09-28T17:45:06.488Z,6.32
2022-09-28T17:47:34.591Z,4.47
2022-09-28T17:50:02.417Z,6.53
2022-09-28T17:52:30.349Z,4.88
2022-09-28T17:54:58.145Z,6.07
2022-09-28T17:57:26.057Z,6.93
2022-09-28T17:59:54.117Z,4.90
2022-09-28T18:02:25.088Z,4.82
2022-09-28T18:04:53.279Z,6.13
2022-09-28T18:07:21.498Z,5.15
2022-09-28T18:09:56.561Z,7.00
2022-09-28T18:12:25.120Z,6.85
2022-09-28T18:14:54.405Z,7.68
2022-09-28T18:17:23.740Z,5.80
2022-09-28T18:19:51.515Z,5.65
2022-09-28T18:22:19.380Z,8.02
2022-09-28T18:24:47.438Z,5.47
2022-09-28T18:27:15.196Z,6.40
2022-09-28T18:29:43.112Z,4.47
2022-09-28T18:32:10.886Z,3.90
2022-09-28T18:34:40.031Z,3.35
2022-09-28T18:37:07.770Z,4.97
2022-09-28T18:39:36.227Z,4.68
2022-09-28T18:42:04.115Z,4.50
2022-09-28T18:44:31.993Z,4.10
2022-09-28T18:47:02.204Z,5.93
2022-09-28T18:49:33.500Z,5.60
2022-09-28T18:52:03.424Z,6.03
2022-09-28T18:54:31.141Z,7.03
2022-09-28T18:56:58.863Z,7.13
2022-09-28T18:59:26.658Z,6.15
2022-09-28T19:01:54.521Z,8.02
2022-09-28T19:04:22.611Z,8.45
2022-09-28T19:06:52.314Z,5.25
2022-09-28T19:09:24.579Z,5.32
2022-09-28T19:11:52.560Z,5.28
2022-09-28T19:14:20.492Z,7.25
2022-09-28T19:16:48.220Z,8.80
2022-09-28T19:19:18.262Z,5.75
2022-09-28T19:21:47.612Z,9.13
2022-09-28T19:24:17.141Z,6.75
2022-09-28T19:26:47.335Z,8.65
2022-09-28T19:29:15.643Z,11.60
2022-09-28T19:31:44.236Z,10.45
2022-09-28T19:34:14.193Z,11.35
2022-09-28T19:36:43.209Z,8.63
2022-09-28T19:39:14.681Z,11.75
2022-09-28T19:41:49.445Z,7.70
2022-09-28T19:44:23.079Z,9.38
2022-09-28T19:46:51.624Z,17.17
2022-09-28T19:49:21.106Z,15.20
2022-09-28T19:54:38.412Z,9.43
2022-09-28T19:57:08.483Z,10.38
2022-09-28T19:59:37.029Z,9.52
2022-09-28T20:02:05.758Z,8.25
2022-09-28T20:04:33.588Z,8.75
2022-09-28T20:07:01.780Z,10.63
2022-09-28T20:09:29.623Z,9.98
2022-09-28T20:11:57.603Z,9.98
2022-09-28T20:14:32.835Z,10.98
2022-09-28T20:17:01.936Z,13.25
2022-09-28T20:19:29.664Z,11.15
2022-09-28T20:21:59.374Z,12.48
2022-09-28T20:24:28.762Z,11.35
2022-09-28T20:26:56.829Z,14.43
2022-09-28T20:29:26.592Z,11.75
2022-09-28T20:31:54.340Z,13.63
2022-09-28T20:34:22.124Z,12.40
2022-09-28T20:36:49.827Z,12.23
2022-09-28T20:39:17.681Z,13.50
2022-09-28T20:41:47.097Z,11.40
2022-09-28T20:44:14.953Z,9.98
2022-09-28T20:46:44.442Z,8.68
2022-09-28T20:49:12.333Z,10.32
2022-09-28T20:51:40.229Z,10.65
2022-09-28T20:54:08.241Z,10.48
2022-09-28T20:56:38.186Z,10.95
2022-09-28T20:59:07.653Z,10.52
2022-09-28T21:01:35.704Z,8.73
2022-09-28T21:04:06.555Z,11.65
2022-09-28T21:06:36.446Z,9.05
2022-09-28T21:09:05.808Z,7.70
2022-09-28T21:11:35.372Z,7.95
2022-09-28T21:14:05.959Z,8.65
2022-09-28T21:16:35.819Z,7.68
2022-09-28T21:19:05.353Z,8.88
2022-09-28T21:21:33.246Z,9.07
2022-09-28T21:24:01.975Z,10.55
2022-09-28T21:26:31.112Z,7.88
2022-09-28T21:29:00.259Z,8.18
2022-09-28T21:31:31.330Z,10.80
2022-09-28T21:33:59.991Z,15.95
2022-09-28T21:36:29.185Z,13.85
2022-09-28T21:38:57.255Z,11.35
2022-09-28T21:41:25.054Z,12.50
2022-09-28T21:43:52.997Z,16.33
2022-09-28T21:46:20.715Z,9.07
2022-09-28T21:48:52.527Z,13.40
2022-09-28T21:51:20.600Z,12.48
2022-09-28T21:53:50.300Z,14.00
2022-09-28T21:56:18.518Z,8.95
2022-09-28T21:58:46.619Z,10.10
2022-09-28T22:01:19.342Z,9.68
2022-09-28T22:03:48.940Z,9.23
2022-09-28T22:06:18.475Z,8.45
2022-09-28T22:08:46.631Z,12.13
2022-09-28T22:11:18.133Z,9.93
2022-09-28T22:13:49.269Z,7.88
2022-09-28T22:16:19.680Z,12.75
2022-09-28T22:18:48.420Z,8.98
2022-09-28T22:21:20.705Z,7.55
2022-09-28T22:23:49.740Z,10.02
2022-09-28T22:26:21.522Z,8.15
2022-09-28T22:28:50.935Z,8.32
2022-09-28T22:31:20.577Z,8.52
2022-09-28T22:33:48.661Z,7.85
2022-09-28T22:36:17.095Z,9.15
2022-09-28T22:38:45.234Z,7.95
2022-09-28T22:41:14.470Z,10.32
2022-09-28T22:43:44.275Z,8.60
2022-09-28T22:46:13.818Z,9.15
2022-09-28T22:48:42.224Z,10.57
2022-09-28T22:51:10.102Z,8.32
2022-09-28T22:53:38.217Z,10.30
2022-09-28T22:56:07.889Z,11.55
2022-09-28T22:58:36.982Z,8.40
2022-09-28T23:01:10.706Z,7.45
2022-09-28T23:03:40.370Z,8.65
2022-09-28T23:06:09.130Z,8.55
2022-09-28T23:08:36.875Z,9.15
2022-09-28T23:11:05.320Z,9.77
2022-09-28T23:13:33.082Z,9.63
2022-09-28T23:16:03.126Z,6.78
2022-09-28T23:18:33.983Z,7.32
2022-09-28T23:21:03.624Z,10.25
2022-09-28T23:23:31.316Z,11.32
2022-09-28T23:25:59.524Z,11.80
2022-09-28T23:28:28.052Z,12.35
2022-09-28T23:30:55.922Z,10.13
2022-09-28T23:33:23.694Z,8.52
2022-09-28T23:35:52.759Z,10.38
2022-09-28T23:38:20.537Z,7.13
2022-09-28T23:40:48.697Z,10.18
2022-09-28T23:43:16.449Z,9.50
2022-09-28T23:45:44.817Z,9.30
2022-09-28T23:48:14.885Z,9.05
2022-09-28T23:50:43.121Z,9.23
2022-09-28T23:53:13.601Z,9.20
2022-09-28T23:55:42.506Z,10.27
2022-09-28T23:58:10.233Z,9.32
